createdAt,value
2018-04-27T00:02:14.008Z,20.35
2018-04-27T00:04:40.396Z,20.39
2018-04-27T00:07:06.812Z,20.34
2018-04-27T00:09:33.246Z,20.37
2018-04-27T00:11:59.638Z,20.32
2018-04-27T00:14:26.077Z,20.39
2018-04-27T00:16:52.547Z,20.42
2018-04-27T00:19:18.964Z,20.39
2018-04-27T00:21:45.388Z,20.49
2018-04-27T00:24:11.913Z,20.46
2018-04-27T00:26:38.330Z,20.38
2018-04-27T00:29:04.720Z,20.30
2018-04-27T00:31:31.053Z,20.32
2018-04-27T00:33:57.510Z,20.24
2018-04-27T00:36:23.980Z,20.23
2018-04-27T00:38:50.336Z,20.13
2018-04-27T00:41:16.732Z,20.10
2018-04-27T00:43:43.129Z,20.14
2018-04-27T00:46:09.513Z,20.00
2018-04-27T00:48:35.922Z,19.85
2018-04-27T00:51:02.328Z,19.91
2018-04-27T00:53:28.702Z,19.85
2018-04-27T00:55:55.140Z,19.84
2018-04-27T00:58:21.507Z,19.84
2018-04-27T01:00:47.888Z,19.71
2018-04-27T01:03:14.316Z,19.64
2018-04-27T01:05:40.772Z,19.59
2018-04-27T01:08:07.210Z,19.54
2018-04-27T01:10:33.795Z,19.46
2018-04-27T01:13:00.210Z,19.34
2018-04-27T01:15:26.621Z,19.37
2018-04-27T01:17:53.059Z,19.29
2018-04-27T01:20:19.432Z,19.30
2018-04-27T01:22:45.840Z,19.37
2018-04-27T01:25:12.240Z,19.33
2018-04-27T01:27:38.629Z,19.23
2018-04-27T01:30:05.041Z,19.11
2018-04-27T01:32:31.618Z,18.95
2018-04-27T01:34:58.148Z,19.02
2018-04-27T01:37:24.617Z,18.96
2018-04-27T01:39:51.026Z,18.97
2018-04-27T01:42:17.360Z,19.03
2018-04-27T01:44:43.748Z,19.09
2018-04-27T01:47:11.886Z,19.14
2018-04-27T01:49:38.477Z,19.10
2018-04-27T01:52:05.060Z,19.20
2018-04-27T01:54:31.424Z,19.16
2018-04-27T01:56:57.848Z,19.06
2018-04-27T01:59:24.195Z,19.00
2018-04-27T02:01:50.590Z,18.91
2018-04-27T02:04:17.008Z,18.83
2018-04-27T02:06:43.390Z,18.72
2018-04-27T02:09:09.787Z,18.83
2018-04-27T02:11:36.220Z,18.66
2018-04-27T02:14:02.618Z,18.66
2018-04-27T02:16:29.046Z,18.48
2018-04-27T02:18:55.530Z,18.49
2018-04-27T02:21:21.956Z,18.48
2018-04-27T02:23:48.309Z,18.60
2018-04-27T02:26:14.721Z,18.57
2018-04-27T02:28:41.102Z,18.63
2018-04-27T02:31:07.501Z,18.52
2018-04-27T02:33:33.926Z,18.54
2018-04-27T02:36:00.351Z,18.38
2018-04-27T02:38:26.754Z,18.27
2018-04-27T02:40:53.126Z,18.36
2018-04-27T02:43:19.600Z,18.37
2018-04-27T02:45:46.010Z,18.50
2018-04-27T02:48:12.390Z,18.45
2018-04-27T02:50:38.992Z,18.41
2018-04-27T02:53:05.494Z,18.37
2018-04-27T02:55:31.878Z,18.37
2018-04-27T02:57:58.249Z,18.39
2018-04-27T03:00:24.618Z,18.17
2018-04-27T03:02:51.003Z,18.20
2018-04-27T03:05:17.558Z,18.23
2018-04-27T03:07:43.910Z,18.39
2018-04-27T03:10:10.330Z,18.30
2018-04-27T03:12:36.753Z,18.12
2018-04-27T03:15:03.181Z,18.20
2018-04-27T03:17:29.532Z,18.25
2018-04-27T03:19:56.015Z,18.32
2018-04-27T03:22:22.419Z,18.41
2018-04-27T03:24:48.814Z,18.49
2018-04-27T03:27:15.282Z,18.36
2018-04-27T03:29:41.701Z,18.44
2018-04-27T03:32:08.074Z,18.40
2018-04-27T03:34:34.448Z,18.33
2018-04-27T03:37:00.808Z,18.27
2018-04-27T03:39:27.251Z,18.11
2018-04-27T03:41:53.627Z,18.04
2018-04-27T03:44:20.002Z,18.19
2018-04-27T03:46:46.514Z,18.09
2018-04-27T03:49:12.925Z,18.14
2018-04-27T03:51:39.415Z,18.10
2018-04-27T03:54:05.791Z,18.10
2018-04-27T03:57:07.285Z,18.13
2018-04-27T03:59:45.965Z,18.17
2018-04-27T04:02:24.728Z,18.23
2018-04-27T04:05:03.362Z,18.19
2018-04-27T04:07:29.787Z,18.23
2018-04-27T04:09:56.227Z,18.35
2018-04-27T04:12:22.634Z,18.30
2018-04-27T04:14:49.074Z,18.27
2018-04-27T04:17:15.520Z,18.26
2018-04-27T04:19:41.891Z,18.34
2018-04-27T04:22:08.415Z,18.30
2018-04-27T04:24:34.744Z,18.40
2018-04-27T04:27:01.121Z,18.51
2018-04-27T04:29:27.802Z,18.41
2018-04-27T04:31:54.211Z,18.49
2018-04-27T04:34:20.651Z,18.39
2018-04-27T04:36:47.136Z,18.39
2018-04-27T04:39:14.074Z,18.49
2018-04-27T04:41:40.674Z,18.60
2018-04-27T04:44:07.286Z,18.53
2018-04-27T04:46:33.733Z,18.51
2018-04-27T04:49:00.137Z,18.58
2018-04-27T04:51:26.585Z,18.70
2018-04-27T04:53:53.032Z,18.81
2018-04-27T04:56:19.417Z,18.79
2018-04-27T04:58:45.863Z,18.87
2018-04-27T05:01:12.331Z,19.03
2018-04-27T05:03:39.027Z,19.12
2018-04-27T05:06:05.851Z,19.17
2018-04-27T05:08:32.669Z,19.16
2018-04-27T05:10:59.145Z,19.14
2018-04-27T05:13:25.575Z,19.24
2018-04-27T05:15:52.008Z,19.35
2018-04-27T05:18:26.658Z,19.46
2018-04-27T05:20:53.061Z,19.54
2018-04-27T05:23:19.434Z,19.62
2018-04-27T05:25:45.936Z,19.65
2018-04-27T05:28:12.426Z,19.77
2018-04-27T05:30:38.804Z,19.84
2018-04-27T05:33:05.316Z,19.96
2018-04-27T05:35:31.769Z,20.05
2018-04-27T05:37:58.178Z,20.07
2018-04-27T05:40:24.969Z,20.17
2018-04-27T05:42:51.434Z,20.35
2018-04-27T05:45:17.954Z,20.43
2018-04-27T05:47:44.488Z,20.47
2018-04-27T05:50:11.122Z,20.51
2018-04-27T05:52:37.510Z,20.58
2018-04-27T05:55:03.986Z,20.70
2018-04-27T05:57:30.503Z,20.82
2018-04-27T05:59:57.008Z,20.94
2018-04-27T06:02:23.542Z,21.08
2018-04-27T06:04:51.081Z,21.18
2018-04-27T06:07:17.569Z,21.31
2018-04-27T06:09:44.225Z,21.45
2018-04-27T06:12:10.680Z,21.57
2018-04-27T06:14:37.141Z,21.68
2018-04-27T06:17:03.678Z,21.80
2018-04-27T06:19:30.043Z,21.79
2018-04-27T06:21:56.502Z,21.85
2018-04-27T06:24:23.207Z,21.93
2018-04-27T06:26:49.642Z,21.91
2018-04-27T06:29:16.155Z,22.14
2018-04-27T06:31:42.594Z,22.36
2018-04-27T06:34:09.093Z,22.53
2018-04-27T06:36:35.482Z,22.64
2018-04-27T06:39:01.987Z,22.70
2018-04-27T06:41:28.499Z,22.80
2018-04-27T06:43:55.034Z,22.90
2018-04-27T06:46:21.538Z,23.01
2018-04-27T06:48:47.978Z,23.00
2018-04-27T06:51:14.379Z,23.05
2018-04-27T06:53:40.826Z,23.19
2018-04-27T06:56:07.359Z,23.04
2018-04-27T06:58:33.841Z,23.01
2018-04-27T07:01:00.382Z,22.95
2018-04-27T07:03:26.943Z,23.06
2018-04-27T07:05:53.473Z,23.21
2018-04-27T07:08:20.029Z,23.42
2018-04-27T07:10:46.554Z,23.26
2018-04-27T07:13:12.994Z,23.15
2018-04-27T07:15:39.728Z,23.08
2018-04-27T07:18:06.257Z,23.23
2018-04-27T07:20:32.648Z,23.38
2018-04-27T07:22:59.082Z,23.58
2018-04-27T07:25:25.591Z,23.77
2018-04-27T07:27:52.319Z,23.79
2018-04-27T07:30:18.791Z,23.88
2018-04-27T07:32:45.340Z,24.04
2018-04-27T07:35:11.760Z,24.12
2018-04-27T07:37:38.250Z,24.16
2018-04-27T07:40:04.798Z,24.25
2018-04-27T07:42:31.280Z,24.28
2018-04-27T07:44:57.870Z,24.36
2018-04-27T07:47:24.542Z,24.30
2018-04-27T07:49:51.031Z,24.25
2018-04-27T07:52:17.533Z,24.32
2018-04-27T07:54:44.052Z,24.46
2018-04-27T07:57:10.512Z,24.48
2018-04-27T07:59:37.125Z,24.54
2018-04-27T08:02:03.609Z,24.65
2018-04-27T08:04:30.120Z,24.77
2018-04-27T08:06:56.702Z,24.59
2018-04-27T08:09:23.196Z,24.71
2018-04-27T08:11:49.665Z,24.91
2018-04-27T08:14:16.273Z,25.04
2018-04-27T08:16:42.838Z,25.17
2018-04-27T08:19:09.358Z,25.20
2018-04-27T08:21:35.849Z,25.37
2018-04-27T08:24:02.727Z,25.42
2018-04-27T08:26:29.486Z,25.50
2018-04-27T08:28:57.258Z,25.60
2018-04-27T08:31:24.025Z,25.67
2018-04-27T08:33:50.674Z,25.67
2018-04-27T08:36:17.462Z,25.76
2018-04-27T08:38:44.080Z,25.65
2018-04-27T08:41:10.675Z,25.63
2018-04-27T08:43:37.237Z,25.57
2018-04-27T08:46:03.829Z,25.67
2018-04-27T08:48:30.351Z,25.75
2018-04-27T08:50:57.040Z,25.88
2018-04-27T08:53:24.534Z,25.87
2018-04-27T08:55:51.132Z,25.83
2018-04-27T08:58:17.865Z,25.88
2018-04-27T09:00:44.709Z,26.02
2018-04-27T09:03:11.413Z,25.92
2018-04-27T09:05:38.192Z,25.98
2018-04-27T09:08:04.678Z,26.06
2018-04-27T09:10:31.398Z,26.01
2018-04-27T09:12:58.026Z,26.01
2018-04-27T09:15:24.569Z,25.95
2018-04-27T09:17:51.122Z,25.99
2018-04-27T09:20:17.737Z,25.87
2018-04-27T09:22:44.338Z,25.90
2018-04-27T09:25:10.941Z,26.10
2018-04-27T09:27:37.494Z,26.25
2018-04-27T09:30:04.293Z,26.42
2018-04-27T09:32:30.806Z,26.59
2018-04-27T09:34:57.286Z,26.64
2018-04-27T09:37:23.898Z,26.78
2018-04-27T09:39:50.372Z,26.90
2018-04-27T09:42:17.267Z,26.99
2018-04-27T09:44:44.100Z,27.06
2018-04-27T09:47:10.801Z,27.18
2018-04-27T09:49:37.355Z,27.13
2018-04-27T09:52:03.885Z,27.05
2018-04-27T09:54:30.349Z,27.08
2018-04-27T09:56:56.839Z,27.00
2018-04-27T09:59:23.447Z,26.95
2018-04-27T10:01:49.945Z,26.95
2018-04-27T10:04:16.489Z,27.01
2018-04-27T10:06:43.099Z,27.18
2018-04-27T10:09:09.618Z,27.18
2018-04-27T10:11:36.149Z,27.28
2018-04-27T10:14:02.614Z,27.39
2018-04-27T10:16:29.304Z,27.43
2018-04-27T10:18:56.102Z,27.49
2018-04-27T10:21:22.593Z,27.55
2018-04-27T10:23:49.055Z,27.55
2018-04-27T10:26:20.624Z,27.68
2018-04-27T10:28:47.068Z,27.67
2018-04-27T10:31:13.514Z,27.70
2018-04-27T10:33:40.114Z,27.85
2018-04-27T10:36:06.468Z,27.83
2018-04-27T10:38:32.937Z,27.89
2018-04-27T10:40:59.559Z,27.88
2018-04-27T10:43:26.014Z,27.87
2018-04-27T10:45:52.472Z,27.86
2018-04-27T10:48:19.054Z,27.77
2018-04-27T10:50:45.554Z,27.76
2018-04-27T10:53:12.016Z,27.85
2018-04-27T10:55:38.758Z,27.87
2018-04-27T10:58:05.230Z,27.87
2018-04-27T11:00:31.798Z,27.87
2018-04-27T11:02:58.336Z,27.89
2018-04-27T11:05:24.864Z,27.89
2018-04-27T11:07:51.486Z,27.78
2018-04-27T11:10:17.971Z,27.75
2018-04-27T11:12:44.510Z,27.85
2018-04-27T11:15:11.148Z,27.85
2018-04-27T11:17:37.819Z,27.82
2018-04-27T11:20:04.283Z,27.97
2018-04-27T11:22:30.862Z,27.98
2018-04-27T11:24:57.354Z,28.10
2018-04-27T11:27:23.785Z,28.18
2018-04-27T11:29:50.462Z,28.15
2018-04-27T11:32:17.002Z,28.19
2018-04-27T11:34:43.556Z,28.19
2018-04-27T11:37:10.145Z,28.20
2018-04-27T11:39:36.583Z,28.24
2018-04-27T11:42:03.150Z,28.25
2018-04-27T11:44:29.629Z,28.24
2018-04-27T11:46:56.024Z,28.22
2018-04-27T11:49:22.528Z,28.21
2018-04-27T11:51:49.167Z,28.11
2018-04-27T11:54:15.686Z,28.12
2018-04-27T11:56:42.204Z,28.12
2018-04-27T11:59:08.862Z,28.13
2018-04-27T12:01:35.418Z,28.08
2018-04-27T12:04:02.021Z,28.19
2018-04-27T12:06:28.587Z,28.18
2018-04-27T12:08:55.347Z,28.29
2018-04-27T12:11:22.116Z,28.35
2018-04-27T12:13:49.139Z,28.41
2018-04-27T12:16:15.771Z,28.43
2018-04-27T12:18:42.416Z,28.37
2018-04-27T12:21:08.907Z,28.40
2018-04-27T12:23:35.309Z,28.33
2018-04-27T12:26:02.012Z,28.43
2018-04-27T12:28:28.814Z,28.43
2018-04-27T12:30:55.215Z,28.58
2018-04-27T12:33:21.799Z,28.50
2018-04-27T12:35:48.214Z,28.64
2018-04-27T12:38:14.728Z,28.60
2018-04-27T12:40:41.217Z,28.58
2018-04-27T12:43:07.867Z,28.53
2018-04-27T12:45:34.513Z,28.50
2018-04-27T12:48:01.050Z,28.46
2018-04-27T12:50:27.687Z,28.48
2018-04-27T12:52:54.145Z,28.43
2018-04-27T12:55:20.701Z,28.38
2018-04-27T12:57:47.269Z,28.32
2018-04-27T13:00:14.084Z,28.24
2018-04-27T13:02:40.522Z,28.23
2018-04-27T13:05:07.029Z,28.13
2018-04-27T13:07:33.512Z,28.17
2018-04-27T13:09:59.982Z,28.22
2018-04-27T13:12:26.716Z,28.28
2018-04-27T13:14:53.252Z,28.32
2018-04-27T13:17:19.692Z,28.37
2018-04-27T13:19:46.250Z,28.27
2018-04-27T13:22:12.707Z,28.23
2018-04-27T13:24:39.281Z,28.20
2018-04-27T13:27:05.829Z,28.21
2018-04-27T13:29:32.235Z,28.24
2018-04-27T13:31:58.750Z,28.17
2018-04-27T13:34:25.299Z,28.30
2018-04-27T13:36:51.946Z,28.17
2018-04-27T13:39:18.405Z,28.13
2018-04-27T13:41:44.964Z,28.18
2018-04-27T13:44:11.720Z,28.18
2018-04-27T13:46:38.153Z,28.12
2018-04-27T13:49:04.634Z,28.15
2018-04-27T13:51:31.215Z,28.09
2018-04-27T13:53:57.927Z,28.12
2018-04-27T13:56:24.504Z,28.13
2018-04-27T13:58:51.078Z,28.03
2018-04-27T14:01:17.646Z,27.99
2018-04-27T14:03:44.200Z,27.95
2018-04-27T14:06:10.713Z,27.93
2018-04-27T14:08:37.256Z,27.94
2018-04-27T14:11:03.895Z,27.95
2018-04-27T14:13:30.352Z,27.97
2018-04-27T14:15:56.770Z,28.03
2018-04-27T14:19:15.402Z,28.00
2018-04-27T14:21:41.920Z,28.03
2018-04-27T14:24:08.511Z,28.09
2018-04-27T14:26:34.952Z,28.08
2018-04-27T14:29:01.362Z,28.05
2018-04-27T14:31:27.749Z,28.17
2018-04-27T14:33:54.313Z,28.16
2018-04-27T14:36:20.983Z,28.14
2018-04-27T14:38:47.536Z,28.21
2018-04-27T14:41:14.040Z,28.14
2018-04-27T14:43:40.637Z,28.16
2018-04-27T14:46:07.117Z,28.18
2018-04-27T14:48:33.791Z,28.17
2018-04-27T14:51:00.345Z,28.14
2018-04-27T14:53:26.914Z,28.19
2018-04-27T14:55:53.364Z,28.19
2018-04-27T14:58:20.018Z,28.15
2018-04-27T15:00:46.447Z,28.08
2018-04-27T15:03:13.002Z,28.08
2018-04-27T15:05:39.433Z,28.04
2018-04-27T15:08:05.884Z,28.06
2018-04-27T15:10:32.466Z,28.07
2018-04-27T15:12:58.984Z,28.00
2018-04-27T15:15:25.462Z,28.03
2018-04-27T15:17:51.911Z,28.07
2018-04-27T15:20:18.368Z,28.02
2018-04-27T15:22:44.825Z,28.00
2018-04-27T15:25:11.262Z,27.97
2018-04-27T15:27:37.743Z,27.94
2018-04-27T15:30:04.251Z,27.92
2018-04-27T15:32:30.812Z,27.94
2018-04-27T15:34:57.233Z,27.90
2018-04-27T15:37:23.655Z,27.84
2018-04-27T15:39:50.179Z,27.82
2018-04-27T15:42:16.710Z,27.78
2018-04-27T15:44:43.177Z,27.86
2018-04-27T15:47:09.696Z,27.80
2018-04-27T15:49:36.259Z,27.84
2018-04-27T15:52:02.884Z,27.72
2018-04-27T15:54:29.276Z,27.75
2018-04-27T15:56:55.725Z,27.83
2018-04-27T15:59:22.350Z,27.70
2018-04-27T16:01:48.835Z,27.61
2018-04-27T16:04:15.654Z,27.58
2018-04-27T16:06:42.202Z,27.66
2018-04-27T16:09:08.744Z,27.59
2018-04-27T16:11:35.263Z,27.49
2018-04-27T16:14:01.891Z,27.43
2018-04-27T16:16:28.456Z,27.39
2018-04-27T16:19:33.407Z,27.41
2018-04-27T16:21:59.841Z,27.43
2018-04-27T16:24:26.411Z,27.39
2018-04-27T16:26:52.955Z,27.32
2018-04-27T16:29:19.440Z,27.28
2018-04-27T16:31:45.875Z,27.26
2018-04-27T16:34:12.401Z,27.22
2018-04-27T16:36:38.900Z,27.28
2018-04-27T16:39:05.358Z,27.20
2018-04-27T16:41:31.972Z,27.13
2018-04-27T16:43:58.388Z,27.08
2018-04-27T16:46:24.766Z,27.03
2018-04-27T16:48:51.307Z,26.99
2018-04-27T16:51:17.828Z,26.99
2018-04-27T16:53:44.446Z,26.97
2018-04-27T16:56:10.913Z,26.91
2018-04-27T16:58:37.471Z,26.86
2018-04-27T17:01:03.936Z,26.78
2018-04-27T17:03:30.380Z,26.69
2018-04-27T17:05:56.923Z,26.61
2018-04-27T17:08:23.444Z,26.54
2018-04-27T17:10:49.937Z,26.46
2018-04-27T17:13:16.357Z,26.42
2018-04-27T17:15:42.857Z,26.38
2018-04-27T17:18:10.883Z,26.32
2018-04-27T17:20:54.112Z,26.25
2018-04-27T17:23:20.903Z,26.20
2018-04-27T17:25:47.409Z,26.16
2018-04-27T17:28:13.973Z,26.14
2018-04-27T17:30:40.463Z,26.09
2018-04-27T17:33:06.913Z,26.05
2018-04-27T17:35:33.374Z,26.02
2018-04-27T17:37:59.870Z,25.99
2018-04-27T17:40:26.442Z,25.94
2018-04-27T17:42:52.859Z,25.90
2018-04-27T17:45:19.273Z,25.89
2018-04-27T17:47:45.755Z,25.99
2018-04-27T17:50:12.228Z,25.96
2018-04-27T17:52:38.693Z,25.92
2018-04-27T17:55:05.119Z,25.86
2018-04-27T17:57:31.699Z,25.85
2018-04-27T17:59:58.101Z,25.85
2018-04-27T18:02:24.601Z,25.83
2018-04-27T18:04:51.191Z,25.80
2018-04-27T18:07:17.639Z,25.72
2018-04-27T18:09:44.130Z,25.64
2018-04-27T18:12:10.582Z,25.60
2018-04-27T18:14:37.033Z,25.56
2018-04-27T18:17:03.516Z,25.50
2018-04-27T18:19:30.025Z,25.42
2018-04-27T18:21:56.639Z,25.38
2018-04-27T18:24:23.130Z,25.34
2018-04-27T18:26:49.601Z,25.29
2018-04-27T18:29:16.059Z,25.22
2018-04-27T18:31:42.494Z,25.15
2018-04-27T18:34:08.980Z,25.06
2018-04-27T18:36:35.388Z,25.00
2018-04-27T18:39:01.913Z,24.98
2018-04-27T18:41:28.474Z,24.95
2018-04-27T18:43:54.879Z,24.91
2018-04-27T18:46:21.333Z,24.89
2018-04-27T18:48:47.902Z,24.85
2018-04-27T18:51:16.493Z,24.80
2018-04-27T18:53:42.970Z,24.75
2018-04-27T18:56:10.401Z,24.72
2018-04-27T18:58:36.866Z,24.68
2018-04-27T19:01:03.392Z,24.66
2018-04-27T19:03:29.867Z,24.61
2018-04-27T19:05:56.372Z,24.58
2018-04-27T19:08:22.906Z,24.57
2018-04-27T19:10:49.480Z,24.57
2018-04-27T19:13:17.941Z,24.54
2018-04-27T19:15:44.461Z,24.51
2018-04-27T19:18:14.865Z,24.51
2018-04-27T19:20:41.267Z,24.50
2018-04-27T19:23:09.330Z,24.48
2018-04-27T19:25:43.924Z,24.41
2018-04-27T19:28:10.474Z,24.31
2018-04-27T19:30:36.952Z,24.29
2018-04-27T19:33:03.390Z,24.31
2018-04-27T19:35:29.838Z,24.29
2018-04-27T19:37:56.270Z,24.32
2018-04-27T19:40:22.826Z,24.39
2018-04-27T19:42:49.348Z,24.46
2018-04-27T19:45:15.865Z,24.48
2018-04-27T19:47:42.312Z,24.44
2018-04-27T19:50:08.796Z,24.43
2018-04-27T19:52:35.215Z,24.34
2018-04-27T19:55:01.659Z,24.26
2018-04-27T19:57:28.178Z,24.24
2018-04-27T19:59:54.797Z,24.21
2018-04-27T20:02:21.373Z,24.11
2018-04-27T20:04:47.935Z,24.06
2018-04-27T20:07:14.482Z,24.00
2018-04-27T20:09:41.061Z,23.95
2018-04-27T20:12:07.525Z,23.94
2018-04-27T20:14:35.929Z,23.90
2018-04-27T20:17:03.312Z,23.85
2018-04-27T20:19:29.704Z,23.73
2018-04-27T20:21:56.259Z,23.69
2018-04-27T20:24:22.861Z,23.64
2018-04-27T20:26:49.279Z,23.57
2018-04-27T20:29:16.727Z,23.47
2018-04-27T20:31:43.386Z,23.46
2018-04-27T20:34:10.076Z,23.48
2018-04-27T20:36:36.572Z,23.46
2018-04-27T20:39:03.074Z,23.44
2018-04-27T20:41:29.549Z,23.49
2018-04-27T20:43:56.060Z,23.40
2018-04-27T20:46:22.635Z,23.48
2018-04-27T20:48:49.114Z,23.43
2018-04-27T20:51:16.876Z,23.33
2018-04-27T20:53:54.170Z,23.30
2018-04-27T20:56:21.832Z,23.23
2018-04-27T20:58:48.376Z,23.04
2018-04-27T21:01:14.902Z,23.06
2018-04-27T21:03:41.464Z,23.07
2018-04-27T21:06:08.133Z,23.01
2018-04-27T21:08:34.856Z,23.03
2018-04-27T21:11:01.309Z,22.98
2018-04-27T21:13:27.881Z,22.92
2018-04-27T21:15:54.466Z,22.90
2018-04-27T21:18:21.198Z,22.87
2018-04-27T21:20:47.683Z,22.79
2018-04-27T21:23:14.188Z,22.81
2018-04-27T21:25:41.749Z,22.80
2018-04-27T21:28:09.387Z,22.79
2018-04-27T21:30:35.866Z,22.72
2018-04-27T21:33:03.167Z,22.73
2018-04-27T21:35:29.686Z,22.66
2018-04-27T21:37:56.168Z,22.76
2018-04-27T21:40:22.706Z,22.70
2018-04-27T21:42:49.204Z,22.71
2018-04-27T21:45:15.739Z,22.40
2018-04-27T21:47:44.229Z,22.35
2018-04-27T21:50:10.753Z,22.38
2018-04-27T21:52:49.227Z,22.48
2018-04-27T21:55:15.704Z,22.46
2018-04-27T21:57:44.977Z,22.37
2018-04-27T22:00:14.243Z,22.12
2018-04-27T22:16:00.176Z,22.15
2018-04-27T22:18:26.760Z,21.96
2018-04-27T22:20:53.389Z,22.26
2018-04-27T22:36:38.714Z,22.09
2018-04-27T22:39:16.633Z,21.92
2018-04-27T22:41:43.110Z,21.87
2018-04-27T22:44:12.658Z,21.89
2018-04-27T22:46:40.194Z,21.84
2018-04-27T22:49:07.583Z,21.83
2018-04-27T22:51:40.064Z,21.75
2018-04-27T22:54:07.498Z,21.55
2018-04-27T22:56:47.774Z,21.48
2018-04-27T22:59:14.333Z,21.44
2018-04-27T23:01:40.834Z,21.29
2018-04-27T23:04:07.368Z,21.15
2018-04-27T23:06:33.902Z,20.85
2018-04-27T23:09:00.397Z,21.00
2018-04-27T23:11:26.877Z,21.16
2018-04-27T23:27:10.937Z,20.80
2018-04-27T23:29:37.416Z,20.83
2018-04-27T23:32:03.919Z,20.71
2018-04-27T23:34:30.407Z,20.92
2018-04-27T23:36:56.909Z,20.80
2018-04-27T23:39:23.413Z,20.98
2018-04-27T23:41:49.900Z,20.88
2018-04-27T23:44:16.440Z,21.02
2018-04-27T23:46:42.913Z,20.58
2018-04-27T23:49:09.391Z,20.59
2018-04-27T23:51:35.894Z,20.73
2018-04-27T23:54:07.270Z,20.77
2018-04-27T23:56:42.944Z,20.63
2018-04-27T23:59:09.430Z,20.78
